LTAU/ASR METAR and TAF weather

Enter ICAO airport designator
Station Type Date Time Source
LTAU METAR 2021/04/14 20:20 UTC NOAA

LTAU 142020Z 00000KT 9999 SCT040 BKN090 08/04 Q1018 NOSIG


Station Type Date Time Source
LTAU Decoded METAR 2021/04/14 20:20 UTC NOAA

Kayseri / Erkilet, Turkey (LTAU) 38-47N 035-29E 1054M
Apr 14, 2021 - 04:20 PM EDT / 2021.04.14 2020 UTC
Wind: Calm:0
Visibility: greater than 7 mile(s):0
Sky conditions: mostly cloudy
Temperature: 46 F (8 C)
Dew Point: 39 F (4 C)
Relative Humidity: 75%
Pressure (altimeter): 30.06 in. Hg (1018 hPa)
ob: LTAU 142020Z 00000KT 9999 SCT040 BKN090 08/04 Q1018 NOSIG
cycle: 20

Station Type Date Time Source
LTAU TAF 2021/04/14 18:03 UTC NOAA

TAF LTAU 141640Z 1418/1518 VRB02KT 9999 SCT040 BKN100
TEMPO 1419/1421 -SHRA PROB40
TEMPO 1503/1507 -SHRA BKN030 BKN090
TEMPO 1509/1513 24015G25KT -TSRA FEW027CB BKN035

Example: see airport list